General Mariano Escobedo International Airport
MMMY : rendu visible

Aérodrome :











RETROUVEZ-NOUS SUR...

 
LOGIN :

S'inscrire | Disclaimer

   EN    FR    IT 

 









Légende :    VFR   VFR Marginal   IFR   IFR Intensif   IFR Très Intensif
Visi : 
Plafond : 
>= 8 km
>= 3000ft
5 à 8 km
1000 à 3000 ft
1500m à 5 km
500 à 1000 ft
800 à 1500m
200 à 500 ft
< 800m
< 200 ft
Symboles :   Orages  Brouillard  Fortes neiges  Fortes précipitations  Vent > 20 kt






- Altitude de l'aérodrome : 1278 ft
- Code IATA : MTY


MMMY - General Mariano Escobedo International

DERNIER METAR :
  • 100647Z 32006KT 8SM SKC 19/15 A2982

METARs EXPIRÉS :
  • 100549Z 30005KT 8SM SCT250 19/15 A2980 RMK SLP/// 5//// 9// 8/008
  • 100447Z 34006KT 8SM SCT250 20/16 A2979 RMK 8/008

TAF TAF MMMY
Valide du 10 à 06h jusqu'au 11 à 12h UTC


100538Z 1006/1112 34006KT P6SM SCT250 TX31/1021Z TN15/1012Z
FM101100 02005KT 5SM HZ SCT080 SCT250
FM101800 36012KT P6SM SCT240
BECMG 1105/1107 08015KT



MET'MAP, la Météo Aéronautique d'un coup d'oeil ! - Copyright ORBIFLY Décembre 2007 - Disclaimer

ORBIFLY MET'MAP TEAM :

Programmation & Développement : Alexandra Zaïnal
Sur une idée originale de : Baudouin d'Aumeries
Assistance à la programmation : Marc-Olivier Méhu
Soutien technique & logistique : Manuel Goepfert

Contact : metmap@orbifly.com




SOURCES & CREDITS :

   NOAA       Earth
Advisory